sensor_id;sensor_type;location;lat;lon;timestamp;P1;durP1;ratioP1;P2;durP2;ratioP2
69989;SDS011;57331;52.054;5.294;2023-02-10T00:01:59;36.20;;;16.40;;
69989;SDS011;57331;52.054;5.294;2023-02-10T00:04:26;36.70;;;13.88;;
69989;SDS011;57331;52.054;5.294;2023-02-10T00:06:54;43.75;;;18.23;;
69989;SDS011;57331;52.054;5.294;2023-02-10T00:09:21;36.88;;;16.42;;
69989;SDS011;57331;52.054;5.294;2023-02-10T00:11:48;41.13;;;16.13;;
69989;SDS011;57331;52.054;5.294;2023-02-10T00:14:29;38.78;;;16.40;;
69989;SDS011;57331;52.054;5.294;2023-02-10T00:16:56;38.97;;;17.05;;
69989;SDS011;57331;52.054;5.294;2023-02-10T00:19:24;36.88;;;15.43;;
69989;SDS011;57331;52.054;5.294;2023-02-10T00:21:52;35.58;;;14.60;;
69989;SDS011;57331;52.054;5.294;2023-02-10T00:24:20;34.77;;;16.57;;
69989;SDS011;57331;52.054;5.294;2023-02-10T00:26:48;35.45;;;15.32;;
69989;SDS011;57331;52.054;5.294;2023-02-10T00:29:15;33.05;;;15.23;;
69989;SDS011;57331;52.054;5.294;2023-02-10T00:31:43;34.10;;;15.95;;
69989;SDS011;57331;52.054;5.294;2023-02-10T00:34:12;40.08;;;17.00;;
69989;SDS011;57331;52.054;5.294;2023-02-10T00:36:40;26.80;;;12.13;;
69989;SDS011;57331;52.054;5.294;2023-02-10T00:39:14;38.90;;;16.40;;
69989;SDS011;57331;52.054;5.294;2023-02-10T00:41:42;36.80;;;15.70;;
69989;SDS011;57331;52.054;5.294;2023-02-10T00:44:09;36.33;;;15.63;;
69989;SDS011;57331;52.054;5.294;2023-02-10T00:46:37;34.60;;;13.05;;
69989;SDS011;57331;52.054;5.294;2023-02-10T00:49:04;31.47;;;13.47;;
69989;SDS011;57331;52.054;5.294;2023-02-10T00:51:33;35.70;;;14.18;;
69989;SDS011;57331;52.054;5.294;2023-02-10T00:54:01;30.85;;;14.90;;
69989;SDS011;57331;52.054;5.294;2023-02-10T00:56:28;38.90;;;15.10;;
69989;SDS011;57331;52.054;5.294;2023-02-10T00:58:56;34.15;;;15.32;;
69989;SDS011;57331;52.054;5.294;2023-02-10T01:01:23;31.53;;;13.63;;
69989;SDS011;57331;52.054;5.294;2023-02-10T01:03:50;32.40;;;12.25;;
69989;SDS011;57331;52.054;5.294;2023-02-10T01:06:17;34.85;;;13.30;;
69989;SDS011;57331;52.054;5.294;2023-02-10T01:08:45;37.58;;;16.38;;
69989;SDS011;57331;52.054;5.294;2023-02-10T01:11:12;31.92;;;11.57;;
69989;SDS011;57331;52.054;5.294;2023-02-10T01:13:41;37.57;;;15.17;;
69989;SDS011;57331;52.054;5.294;2023-02-10T01:16:10;31.52;;;13.98;;
69989;SDS011;57331;52.054;5.294;2023-02-10T01:18:41;30.27;;;12.05;;
69989;SDS011;57331;52.054;5.294;2023-02-10T01:21:10;37.15;;;14.85;;
69989;SDS011;57331;52.054;5.294;2023-02-10T01:23:38;31.38;;;12.30;;
69989;SDS011;57331;52.054;5.294;2023-02-10T01:26:06;32.13;;;14.40;;
69989;SDS011;57331;52.054;5.294;2023-02-10T01:28:35;33.22;;;14.45;;
69989;SDS011;57331;52.054;5.294;2023-02-10T01:31:07;36.15;;;15.38;;
69989;SDS011;57331;52.054;5.294;2023-02-10T01:33:40;31.55;;;14.35;;
69989;SDS011;57331;52.054;5.294;2023-02-10T01:36:17;36.35;;;14.80;;
69989;SDS011;57331;52.054;5.294;2023-02-10T01:38:45;28.00;;;13.87;;
69989;SDS011;57331;52.054;5.294;2023-02-10T01:41:13;37.95;;;14.13;;
69989;SDS011;57331;52.054;5.294;2023-02-10T01:46:46;31.58;;;12.65;;
69989;SDS011;57331;52.054;5.294;2023-02-10T01:49:14;36.35;;;14.10;;
69989;SDS011;57331;52.054;5.294;2023-02-10T01:54:13;32.15;;;12.88;;
69989;SDS011;57331;52.054;5.294;2023-02-10T01:56:43;35.10;;;14.02;;
69989;SDS011;57331;52.054;5.294;2023-02-10T01:59:11;33.80;;;14.68;;
69989;SDS011;57331;52.054;5.294;2023-02-10T02:01:39;37.08;;;14.98;;
69989;SDS011;57331;52.054;5.294;2023-02-10T02:04:07;38.53;;;14.50;;
69989;SDS011;57331;52.054;5.294;2023-02-10T02:06:34;33.53;;;13.93;;
69989;SDS011;57331;52.054;5.294;2023-02-10T02:09:02;37.08;;;13.82;;
69989;SDS011;57331;52.054;5.294;2023-02-10T02:22:43;27.33;;;12.48;;
69989;SDS011;57331;52.054;5.294;2023-02-10T02:33:50;31.05;;;12.38;;
69989;SDS011;57331;52.054;5.294;2023-02-10T02:36:29;22.58;;;10.73;;
69989;SDS011;57331;52.054;5.294;2023-02-10T02:39:00;31.02;;;13.30;;
69989;SDS011;57331;52.054;5.294;2023-02-10T02:41:29;28.38;;;13.07;;
69989;SDS011;57331;52.054;5.294;2023-02-10T02:43:58;32.20;;;12.57;;
69989;SDS011;57331;52.054;5.294;2023-02-10T02:54:17;36.40;;;13.50;;
69989;SDS011;57331;52.054;5.294;2023-02-10T03:02:04;28.52;;;13.57;;
69989;SDS011;57331;52.054;5.294;2023-02-10T03:04:38;22.65;;;9.10;;
69989;SDS011;57331;52.054;5.294;2023-02-10T03:07:06;27.17;;;13.38;;
69989;SDS011;57331;52.054;5.294;2023-02-10T03:09:33;28.63;;;11.60;;
69989;SDS011;57331;52.054;5.294;2023-02-10T03:12:01;25.45;;;11.10;;
69989;SDS011;57331;52.054;5.294;2023-02-10T03:14:28;31.63;;;12.75;;
69989;SDS011;57331;52.054;5.294;2023-02-10T03:16:55;31.15;;;13.80;;
69989;SDS011;57331;52.054;5.294;2023-02-10T03:19:23;29.65;;;13.25;;
69989;SDS011;57331;52.054;5.294;2023-02-10T03:21:50;30.80;;;13.17;;
69989;SDS011;57331;52.054;5.294;2023-02-10T03:24:17;29.75;;;13.18;;
69989;SDS011;57331;52.054;5.294;2023-02-10T03:26:46;22.05;;;10.43;;
69989;SDS011;57331;52.054;5.294;2023-02-10T03:29:13;22.90;;;9.45;;
69989;SDS011;57331;52.054;5.294;2023-02-10T03:31:41;23.25;;;10.13;;
69989;SDS011;57331;52.054;5.294;2023-02-10T03:34:09;37.37;;;13.77;;
69989;SDS011;57331;52.054;5.294;2023-02-10T03:36:36;29.25;;;11.88;;
69989;SDS011;57331;52.054;5.294;2023-02-10T03:39:04;24.65;;;11.65;;
69989;SDS011;57331;52.054;5.294;2023-02-10T03:41:31;32.05;;;12.75;;
69989;SDS011;57331;52.054;5.294;2023-02-10T03:43:58;27.73;;;10.98;;
69989;SDS011;57331;52.054;5.294;2023-02-10T03:46:25;21.70;;;9.90;;
69989;SDS011;57331;52.054;5.294;2023-02-10T03:48:53;31.15;;;13.63;;
69989;SDS011;57331;52.054;5.294;2023-02-10T03:51:20;31.13;;;14.15;;
69989;SDS011;57331;52.054;5.294;2023-02-10T03:53:47;27.25;;;12.43;;
69989;SDS011;57331;52.054;5.294;2023-02-10T03:56:15;28.63;;;12.50;;
69989;SDS011;57331;52.054;5.294;2023-02-10T03:58:42;27.70;;;11.63;;
69989;SDS011;57331;52.054;5.294;2023-02-10T04:01:14;29.27;;;12.02;;
69989;SDS011;57331;52.054;5.294;2023-02-10T04:03:43;29.77;;;12.13;;
69989;SDS011;57331;52.054;5.294;2023-02-10T04:06:11;26.00;;;11.95;;
69989;SDS011;57331;52.054;5.294;2023-02-10T04:08:38;30.83;;;12.85;;
69989;SDS011;57331;52.054;5.294;2023-02-10T04:11:06;26.87;;;12.07;;
69989;SDS011;57331;52.054;5.294;2023-02-10T04:13:35;24.50;;;10.52;;
69989;SDS011;57331;52.054;5.294;2023-02-10T04:16:07;31.13;;;12.88;;
69989;SDS011;57331;52.054;5.294;2023-02-10T04:18:39;28.15;;;11.52;;
69989;SDS011;57331;52.054;5.294;2023-02-10T04:21:08;25.55;;;11.95;;
69989;SDS011;57331;52.054;5.294;2023-02-10T04:23:37;28.10;;;11.50;;
69989;SDS011;57331;52.054;5.294;2023-02-10T04:26:04;25.45;;;11.60;;
69989;SDS011;57331;52.054;5.294;2023-02-10T04:28:31;26.58;;;11.40;;
69989;SDS011;57331;52.054;5.294;2023-02-10T04:30:59;28.23;;;11.45;;
69989;SDS011;57331;52.054;5.294;2023-02-10T04:33:27;27.05;;;12.30;;
69989;SDS011;57331;52.054;5.294;2023-02-10T04:35:55;26.53;;;11.03;;
69989;SDS011;57331;52.054;5.294;2023-02-10T04:38:22;28.77;;;11.40;;
69989;SDS011;57331;52.054;5.294;2023-02-10T04:40:49;23.10;;;9.80;;
69989;SDS011;57331;52.054;5.294;2023-02-10T04:43:16;25.48;;;12.00;;
69989;SDS011;57331;52.054;5.294;2023-02-10T04:45:43;20.93;;;9.47;;
69989;SDS011;57331;52.054;5.294;2023-02-10T04:48:11;27.30;;;11.50;;
69989;SDS011;57331;52.054;5.294;2023-02-10T04:50:40;28.25;;;11.48;;
69989;SDS011;57331;52.054;5.294;2023-02-10T04:53:07;26.42;;;11.48;;
69989;SDS011;57331;52.054;5.294;2023-02-10T04:55:35;24.08;;;10.15;;
69989;SDS011;57331;52.054;5.294;2023-02-10T04:58:02;24.77;;;9.27;;
69989;SDS011;57331;52.054;5.294;2023-02-10T05:00:30;28.92;;;12.23;;
69989;SDS011;57331;52.054;5.294;2023-02-10T05:02:57;28.92;;;11.90;;
69989;SDS011;57331;52.054;5.294;2023-02-10T05:05:25;24.80;;;11.55;;
69989;SDS011;57331;52.054;5.294;2023-02-10T05:07:54;20.67;;;10.07;;
69989;SDS011;57331;52.054;5.294;2023-02-10T05:10:21;26.20;;;11.87;;
69989;SDS011;57331;52.054;5.294;2023-02-10T05:12:49;26.42;;;11.48;;
69989;SDS011;57331;52.054;5.294;2023-02-10T05:15:16;25.88;;;10.68;;
69989;SDS011;57331;52.054;5.294;2023-02-10T05:17:43;26.08;;;10.80;;
69989;SDS011;57331;52.054;5.294;2023-02-10T05:20:11;25.75;;;12.05;;
69989;SDS011;57331;52.054;5.294;2023-02-10T05:22:38;27.47;;;11.40;;
69989;SDS011;57331;52.054;5.294;2023-02-10T05:25:06;29.30;;;12.48;;
69989;SDS011;57331;52.054;5.294;2023-02-10T05:27:34;32.88;;;12.63;;
69989;SDS011;57331;52.054;5.294;2023-02-10T05:30:02;24.70;;;10.10;;
69989;SDS011;57331;52.054;5.294;2023-02-10T05:32:32;28.95;;;12.48;;
69989;SDS011;57331;52.054;5.294;2023-02-10T05:34:59;26.23;;;11.30;;
69989;SDS011;57331;52.054;5.294;2023-02-10T05:37:26;24.63;;;11.13;;
69989;SDS011;57331;52.054;5.294;2023-02-10T05:39:53;27.75;;;10.95;;
69989;SDS011;57331;52.054;5.294;2023-02-10T05:42:20;30.35;;;12.07;;
69989;SDS011;57331;52.054;5.294;2023-02-10T05:44:48;32.90;;;11.37;;
69989;SDS011;57331;52.054;5.294;2023-02-10T05:47:15;30.88;;;11.63;;
69989;SDS011;57331;52.054;5.294;2023-02-10T05:49:43;29.23;;;11.43;;
69989;SDS011;57331;52.054;5.294;2023-02-10T05:52:10;27.50;;;11.25;;
69989;SDS011;57331;52.054;5.294;2023-02-10T05:54:37;25.02;;;10.75;;
69989;SDS011;57331;52.054;5.294;2023-02-10T05:57:06;23.17;;;9.23;;
69989;SDS011;57331;52.054;5.294;2023-02-10T05:59:34;34.35;;;11.90;;
69989;SDS011;57331;52.054;5.294;2023-02-10T06:02:01;24.50;;;11.07;;
69989;SDS011;57331;52.054;5.294;2023-02-10T06:04:28;29.88;;;12.05;;
69989;SDS011;57331;52.054;5.294;2023-02-10T06:06:56;20.30;;;8.87;;
69989;SDS011;57331;52.054;5.294;2023-02-10T06:09:23;27.30;;;11.25;;
69989;SDS011;57331;52.054;5.294;2023-02-10T06:11:52;29.52;;;11.45;;
69989;SDS011;57331;52.054;5.294;2023-02-10T06:14:19;23.75;;;10.13;;
69989;SDS011;57331;52.054;5.294;2023-02-10T06:16:47;30.13;;;11.48;;
69989;SDS011;57331;52.054;5.294;2023-02-10T06:19:14;28.40;;;11.60;;
69989;SDS011;57331;52.054;5.294;2023-02-10T06:21:44;31.23;;;12.77;;
69989;SDS011;57331;52.054;5.294;2023-02-10T06:24:12;28.17;;;12.63;;
69989;SDS011;57331;52.054;5.294;2023-02-10T06:26:39;28.83;;;11.50;;
69989;SDS011;57331;52.054;5.294;2023-02-10T06:29:06;23.92;;;10.90;;
69989;SDS011;57331;52.054;5.294;2023-02-10T06:31:33;31.03;;;12.00;;
69989;SDS011;57331;52.054;5.294;2023-02-10T06:34:01;28.75;;;12.30;;
69989;SDS011;57331;52.054;5.294;2023-02-10T06:36:29;39.08;;;14.95;;
69989;SDS011;57331;52.054;5.294;2023-02-10T06:38:55;29.25;;;13.30;;
69989;SDS011;57331;52.054;5.294;2023-02-10T06:41:23;27.10;;;11.47;;
69989;SDS011;57331;52.054;5.294;2023-02-10T06:43:50;28.42;;;12.73;;
69989;SDS011;57331;52.054;5.294;2023-02-10T06:46:18;27.92;;;12.02;;
69989;SDS011;57331;52.054;5.294;2023-02-10T06:48:45;38.95;;;14.90;;
69989;SDS011;57331;52.054;5.294;2023-02-10T06:51:12;37.78;;;13.38;;
69989;SDS011;57331;52.054;5.294;2023-02-10T06:53:40;71.00;;;15.57;;
69989;SDS011;57331;52.054;5.294;2023-02-10T06:56:09;54.45;;;15.02;;
69989;SDS011;57331;52.054;5.294;2023-02-10T06:58:36;62.78;;;15.93;;
69989;SDS011;57331;52.054;5.294;2023-02-10T07:01:07;90.60;;;14.80;;
69989;SDS011;57331;52.054;5.294;2023-02-10T07:03:35;108.07;;;15.73;;
69989;SDS011;57331;52.054;5.294;2023-02-10T07:06:02;108.30;;;16.52;;
69989;SDS011;57331;52.054;5.294;2023-02-10T07:08:30;69.20;;;15.95;;
69989;SDS011;57331;52.054;5.294;2023-02-10T07:10:57;162.20;;;15.02;;
69989;SDS011;57331;52.054;5.294;2023-02-10T07:13:25;126.43;;;14.55;;
69989;SDS011;57331;52.054;5.294;2023-02-10T07:15:52;108.33;;;12.53;;
69989;SDS011;57331;52.054;5.294;2023-02-10T07:18:19;129.38;;;16.48;;
69989;SDS011;57331;52.054;5.294;2023-02-10T07:20:47;147.98;;;18.38;;
69989;SDS011;57331;52.054;5.294;2023-02-10T07:23:14;123.45;;;16.58;;
69989;SDS011;57331;52.054;5.294;2023-02-10T07:25:44;135.02;;;15.98;;
69989;SDS011;57331;52.054;5.294;2023-02-10T07:28:12;121.07;;;15.20;;
69989;SDS011;57331;52.054;5.294;2023-02-10T07:30:39;149.55;;;28.02;;
69989;SDS011;57331;52.054;5.294;2023-02-10T07:33:07;133.80;;;19.17;;
69989;SDS011;57331;52.054;5.294;2023-02-10T07:35:35;102.03;;;15.20;;
69989;SDS011;57331;52.054;5.294;2023-02-10T07:38:01;113.20;;;16.67;;
69989;SDS011;57331;52.054;5.294;2023-02-10T07:40:29;92.20;;;14.93;;
69989;SDS011;57331;52.054;5.294;2023-02-10T07:42:56;63.15;;;13.63;;
69989;SDS011;57331;52.054;5.294;2023-02-10T07:45:35;62.08;;;15.10;;
69989;SDS011;57331;52.054;5.294;2023-02-10T07:48:02;67.00;;;19.85;;
69989;SDS011;57331;52.054;5.294;2023-02-10T07:50:29;49.45;;;16.17;;
69989;SDS011;57331;52.054;5.294;2023-02-10T07:52:59;69.40;;;16.43;;
69989;SDS011;57331;52.054;5.294;2023-02-10T07:55:27;53.72;;;13.98;;
69989;SDS011;57331;52.054;5.294;2023-02-10T07:57:54;41.75;;;14.80;;
69989;SDS011;57331;52.054;5.294;2023-02-10T08:00:21;54.60;;;14.65;;
69989;SDS011;57331;52.054;5.294;2023-02-10T08:02:49;40.63;;;15.68;;
69989;SDS011;57331;52.054;5.294;2023-02-10T08:05:16;42.83;;;16.50;;
69989;SDS011;57331;52.054;5.294;2023-02-10T08:07:43;39.15;;;16.95;;
69989;SDS011;57331;52.054;5.294;2023-02-10T08:10:10;37.25;;;16.02;;
69989;SDS011;57331;52.054;5.294;2023-02-10T08:12:37;45.53;;;15.75;;
69989;SDS011;57331;52.054;5.294;2023-02-10T08:15:05;40.08;;;16.08;;
69989;SDS011;57331;52.054;5.294;2023-02-10T08:17:33;36.67;;;15.33;;
69989;SDS011;57331;52.054;5.294;2023-02-10T08:20:00;40.83;;;15.55;;
69989;SDS011;57331;52.054;5.294;2023-02-10T08:22:28;48.08;;;17.00;;
69989;SDS011;57331;52.054;5.294;2023-02-10T08:24:55;29.15;;;13.43;;
69989;SDS011;57331;52.054;5.294;2023-02-10T08:27:22;34.08;;;15.00;;
69989;SDS011;57331;52.054;5.294;2023-02-10T08:29:49;34.60;;;13.40;;
69989;SDS011;57331;52.054;5.294;2023-02-10T08:32:17;39.53;;;16.40;;
69989;SDS011;57331;52.054;5.294;2023-02-10T08:34:48;37.88;;;17.05;;
69989;SDS011;57331;52.054;5.294;2023-02-10T08:37:16;41.95;;;17.00;;
69989;SDS011;57331;52.054;5.294;2023-02-10T08:39:44;39.22;;;16.75;;
69989;SDS011;57331;52.054;5.294;2023-02-10T08:42:11;39.67;;;15.47;;
69989;SDS011;57331;52.054;5.294;2023-02-10T08:44:38;36.20;;;15.63;;
69989;SDS011;57331;52.054;5.294;2023-02-10T08:47:06;36.85;;;15.70;;
69989;SDS011;57331;52.054;5.294;2023-02-10T08:49:37;46.28;;;16.92;;
69989;SDS011;57331;52.054;5.294;2023-02-10T08:52:05;38.63;;;17.00;;
69989;SDS011;57331;52.054;5.294;2023-02-10T08:54:32;39.30;;;14.23;;
69989;SDS011;57331;52.054;5.294;2023-02-10T08:56:59;35.90;;;15.70;;
69989;SDS011;57331;52.054;5.294;2023-02-10T08:59:26;39.83;;;16.83;;
69989;SDS011;57331;52.054;5.294;2023-02-10T09:01:54;24.67;;;10.80;;
69989;SDS011;57331;52.054;5.294;2023-02-10T09:04:21;26.40;;;10.65;;
69989;SDS011;57331;52.054;5.294;2023-02-10T09:06:49;37.20;;;16.10;;
69989;SDS011;57331;52.054;5.294;2023-02-10T09:09:17;39.42;;;14.68;;
69989;SDS011;57331;52.054;5.294;2023-02-10T09:11:48;35.65;;;15.77;;
69989;SDS011;57331;52.054;5.294;2023-02-10T09:14:16;39.15;;;16.33;;
69989;SDS011;57331;52.054;5.294;2023-02-10T09:16:43;39.25;;;16.10;;
69989;SDS011;57331;52.054;5.294;2023-02-10T09:19:10;36.97;;;15.77;;
69989;SDS011;57331;52.054;5.294;2023-02-10T09:21:38;37.92;;;16.70;;
69989;SDS011;57331;52.054;5.294;2023-02-10T09:24:13;36.38;;;15.63;;
69989;SDS011;57331;52.054;5.294;2023-02-10T09:26:40;35.08;;;15.35;;
69989;SDS011;57331;52.054;5.294;2023-02-10T09:29:07;44.00;;;16.00;;
69989;SDS011;57331;52.054;5.294;2023-02-10T09:31:35;42.77;;;18.30;;
69989;SDS011;57331;52.054;5.294;2023-02-10T09:34:02;38.33;;;16.77;;
69989;SDS011;57331;52.054;5.294;2023-02-10T09:36:30;35.38;;;15.30;;
69989;SDS011;57331;52.054;5.294;2023-02-10T09:38:57;40.35;;;17.08;;
69989;SDS011;57331;52.054;5.294;2023-02-10T09:54:24;36.90;;;17.00;;
69989;SDS011;57331;52.054;5.294;2023-02-10T09:56:55;33.10;;;13.97;;
69989;SDS011;57331;52.054;5.294;2023-02-10T09:59:22;32.80;;;14.27;;
69989;SDS011;57331;52.054;5.294;2023-02-10T10:01:57;35.75;;;15.13;;
69989;SDS011;57331;52.054;5.294;2023-02-10T10:04:26;42.65;;;17.23;;
69989;SDS011;57331;52.054;5.294;2023-02-10T10:07:03;36.13;;;14.73;;
69989;SDS011;57331;52.054;5.294;2023-02-10T10:09:44;27.07;;;12.00;;
69989;SDS011;57331;52.054;5.294;2023-02-10T10:12:18;34.05;;;14.30;;
69989;SDS011;57331;52.054;5.294;2023-02-10T10:14:45;25.50;;;11.88;;
69989;SDS011;57331;52.054;5.294;2023-02-10T10:19:52;29.45;;;11.85;;
69989;SDS011;57331;52.054;5.294;2023-02-10T10:25:43;34.63;;;16.38;;
69989;SDS011;57331;52.054;5.294;2023-02-10T10:31:19;37.78;;;16.80;;
69989;SDS011;57331;52.054;5.294;2023-02-10T10:36:22;34.70;;;13.67;;
69989;SDS011;57331;52.054;5.294;2023-02-10T10:38:57;34.97;;;15.70;;
69989;SDS011;57331;52.054;5.294;2023-02-10T10:41:33;37.00;;;15.10;;
69989;SDS011;57331;52.054;5.294;2023-02-10T10:44:03;36.50;;;15.73;;
69989;SDS011;57331;52.054;5.294;2023-02-10T10:46:33;28.38;;;12.00;;
69989;SDS011;57331;52.054;5.294;2023-02-10T10:49:22;42.00;;;17.90;;
69989;SDS011;57331;52.054;5.294;2023-02-10T10:51:49;37.67;;;14.60;;
69989;SDS011;57331;52.054;5.294;2023-02-10T10:54:19;36.28;;;15.38;;
69989;SDS011;57331;52.054;5.294;2023-02-10T10:56:49;34.70;;;15.10;;
69989;SDS011;57331;52.054;5.294;2023-02-10T11:01:47;23.47;;;10.50;;
69989;SDS011;57331;52.054;5.294;2023-02-10T11:04:16;34.35;;;12.90;;
69989;SDS011;57331;52.054;5.294;2023-02-10T11:07:19;36.08;;;15.05;;
69989;SDS011;57331;52.054;5.294;2023-02-10T11:09:53;31.05;;;14.35;;
69989;SDS011;57331;52.054;5.294;2023-02-10T11:12:23;26.67;;;13.15;;
69989;SDS011;57331;52.054;5.294;2023-02-10T11:14:51;34.03;;;13.27;;
69989;SDS011;57331;52.054;5.294;2023-02-10T11:17:35;33.70;;;13.98;;
69989;SDS011;57331;52.054;5.294;2023-02-10T11:22:38;33.92;;;14.00;;
69989;SDS011;57331;52.054;5.294;2023-02-10T11:28:00;27.77;;;12.80;;
69989;SDS011;57331;52.054;5.294;2023-02-10T11:30:30;23.10;;;11.02;;
69989;SDS011;57331;52.054;5.294;2023-02-10T11:33:16;30.38;;;13.05;;
69989;SDS011;57331;52.054;5.294;2023-02-10T11:35:50;27.33;;;13.10;;
69989;SDS011;57331;52.054;5.294;2023-02-10T11:38:25;33.92;;;13.45;;
69989;SDS011;57331;52.054;5.294;2023-02-10T11:40:57;29.17;;;12.50;;
69989;SDS011;57331;52.054;5.294;2023-02-10T11:43:31;29.27;;;12.57;;
69989;SDS011;57331;52.054;5.294;2023-02-10T11:46:26;30.33;;;13.20;;
69989;SDS011;57331;52.054;5.294;2023-02-10T11:48:56;28.85;;;12.43;;
69989;SDS011;57331;52.054;5.294;2023-02-10T11:51:26;28.77;;;12.35;;
69989;SDS011;57331;52.054;5.294;2023-02-10T11:53:53;27.40;;;12.13;;
69989;SDS011;57331;52.054;5.294;2023-02-10T11:56:26;25.90;;;11.45;;
69989;SDS011;57331;52.054;5.294;2023-02-10T12:05:28;23.83;;;11.35;;
69989;SDS011;57331;52.054;5.294;2023-02-10T12:10:53;26.17;;;12.55;;
69989;SDS011;57331;52.054;5.294;2023-02-10T12:13:32;32.65;;;13.07;;
69989;SDS011;57331;52.054;5.294;2023-02-10T12:33:50;30.08;;;13.95;;
69989;SDS011;57331;52.054;5.294;2023-02-10T12:42:52;33.42;;;15.10;;
69989;SDS011;57331;52.054;5.294;2023-02-10T12:45:10;28.52;;;12.50;;
69989;SDS011;57331;52.054;5.294;2023-02-10T12:47:48;26.35;;;12.48;;
69989;SDS011;57331;52.054;5.294;2023-02-10T12:53:24;32.25;;;14.20;;
69989;SDS011;57331;52.054;5.294;2023-02-10T12:58:46;31.80;;;14.35;;
69989;SDS011;57331;52.054;5.294;2023-02-10T13:04:36;29.73;;;13.53;;
69989;SDS011;57331;52.054;5.294;2023-02-10T13:09:39;28.27;;;13.02;;
69989;SDS011;57331;52.054;5.294;2023-02-10T13:12:21;29.15;;;14.40;;
69989;SDS011;57331;52.054;5.294;2023-02-10T13:15:12;32.85;;;14.38;;
69989;SDS011;57331;52.054;5.294;2023-02-10T13:17:51;32.40;;;14.20;;
69989;SDS011;57331;52.054;5.294;2023-02-10T13:23:13;34.15;;;15.63;;
69989;SDS011;57331;52.054;5.294;2023-02-10T13:26:27;37.25;;;14.63;;
69989;SDS011;57331;52.054;5.294;2023-02-10T13:34:28;35.95;;;16.77;;
69989;SDS011;57331;52.054;5.294;2023-02-10T13:39:26;38.92;;;16.65;;
69989;SDS011;57331;52.054;5.294;2023-02-10T13:42:20;34.22;;;17.02;;
69989;SDS011;57331;52.054;5.294;2023-02-10T13:47:38;38.90;;;17.92;;
69989;SDS011;57331;52.054;5.294;2023-02-10T14:11:47;39.00;;;19.30;;
69989;SDS011;57331;52.054;5.294;2023-02-10T14:14:19;37.85;;;17.70;;
69989;SDS011;57331;52.054;5.294;2023-02-10T14:19:56;47.38;;;20.48;;
69989;SDS011;57331;52.054;5.294;2023-02-10T14:24:52;46.70;;;21.13;;
69989;SDS011;57331;52.054;5.294;2023-02-10T14:27:21;42.70;;;19.00;;
69989;SDS011;57331;52.054;5.294;2023-02-10T14:29:51;41.28;;;20.45;;
69989;SDS011;57331;52.054;5.294;2023-02-10T14:32:20;41.28;;;19.40;;
69989;SDS011;57331;52.054;5.294;2023-02-10T14:34:52;39.28;;;20.40;;
69989;SDS011;57331;52.054;5.294;2023-02-10T14:37:21;45.40;;;19.97;;
69989;SDS011;57331;52.054;5.294;2023-02-10T14:39:52;39.20;;;20.30;;
69989;SDS011;57331;52.054;5.294;2023-02-10T14:42:22;42.60;;;20.60;;
69989;SDS011;57331;52.054;5.294;2023-02-10T14:44:56;44.13;;;21.05;;
69989;SDS011;57331;52.054;5.294;2023-02-10T14:47:35;43.83;;;21.50;;
69989;SDS011;57331;52.054;5.294;2023-02-10T14:50:05;40.57;;;21.00;;
69989;SDS011;57331;52.054;5.294;2023-02-10T14:52:33;39.42;;;17.35;;
69989;SDS011;57331;52.054;5.294;2023-02-10T14:55:21;40.72;;;19.20;;
69989;SDS011;57331;52.054;5.294;2023-02-10T14:57:48;40.35;;;17.85;;
69989;SDS011;57331;52.054;5.294;2023-02-10T15:00:15;50.72;;;21.77;;
69989;SDS011;57331;52.054;5.294;2023-02-10T15:02:51;44.40;;;20.53;;
69989;SDS011;57331;52.054;5.294;2023-02-10T15:05:23;43.75;;;19.38;;
69989;SDS011;57331;52.054;5.294;2023-02-10T15:07:53;45.83;;;20.98;;
69989;SDS011;57331;52.054;5.294;2023-02-10T15:10:31;44.17;;;18.10;;
69989;SDS011;57331;52.054;5.294;2023-02-10T15:13:06;45.25;;;19.98;;
69989;SDS011;57331;52.054;5.294;2023-02-10T15:15:37;51.07;;;20.53;;
69989;SDS011;57331;52.054;5.294;2023-02-10T15:18:29;48.03;;;20.02;;
69989;SDS011;57331;52.054;5.294;2023-02-10T15:20:59;49.72;;;21.33;;
69989;SDS011;57331;52.054;5.294;2023-02-10T15:23:31;58.33;;;21.77;;
69989;SDS011;57331;52.054;5.294;2023-02-10T15:26:04;40.97;;;17.65;;
69989;SDS011;57331;52.054;5.294;2023-02-10T15:28:40;39.63;;;17.17;;
69989;SDS011;57331;52.054;5.294;2023-02-10T15:33:50;33.90;;;15.32;;
69989;SDS011;57331;52.054;5.294;2023-02-10T15:39:03;49.17;;;19.08;;
69989;SDS011;57331;52.054;5.294;2023-02-10T15:41:44;53.10;;;21.17;;
69989;SDS011;57331;52.054;5.294;2023-02-10T15:46:48;38.33;;;15.40;;
69989;SDS011;57331;52.054;5.294;2023-02-10T15:49:34;58.10;;;22.58;;
69989;SDS011;57331;52.054;5.294;2023-02-10T15:52:01;48.90;;;19.67;;
69989;SDS011;57331;52.054;5.294;2023-02-10T15:54:30;50.73;;;20.47;;
69989;SDS011;57331;52.054;5.294;2023-02-10T15:57:01;54.45;;;20.80;;
69989;SDS011;57331;52.054;5.294;2023-02-10T15:59:30;48.67;;;20.50;;
69989;SDS011;57331;52.054;5.294;2023-02-10T16:01:59;46.05;;;18.52;;
69989;SDS011;57331;52.054;5.294;2023-02-10T16:04:28;47.90;;;19.90;;
69989;SDS011;57331;52.054;5.294;2023-02-10T16:06:57;46.30;;;19.60;;
69989;SDS011;57331;52.054;5.294;2023-02-10T16:09:25;48.53;;;20.75;;
69989;SDS011;57331;52.054;5.294;2023-02-10T16:11:53;54.92;;;23.55;;
69989;SDS011;57331;52.054;5.294;2023-02-10T16:14:21;52.47;;;21.20;;
69989;SDS011;57331;52.054;5.294;2023-02-10T16:16:49;50.65;;;20.67;;
69989;SDS011;57331;52.054;5.294;2023-02-10T16:19:19;60.27;;;27.87;;
69989;SDS011;57331;52.054;5.294;2023-02-10T16:21:48;37.35;;;16.45;;
69989;SDS011;57331;52.054;5.294;2023-02-10T16:24:19;50.40;;;21.40;;
69989;SDS011;57331;52.054;5.294;2023-02-10T16:26:46;54.60;;;21.48;;
69989;SDS011;57331;52.054;5.294;2023-02-10T16:29:18;36.60;;;14.63;;
69989;SDS011;57331;52.054;5.294;2023-02-10T16:31:47;45.93;;;19.77;;
69989;SDS011;57331;52.054;5.294;2023-02-10T16:34:14;50.38;;;19.90;;
69989;SDS011;57331;52.054;5.294;2023-02-10T16:36:42;51.53;;;19.90;;
69989;SDS011;57331;52.054;5.294;2023-02-10T16:39:12;42.58;;;18.10;;
69989;SDS011;57331;52.054;5.294;2023-02-10T16:41:42;51.65;;;23.48;;
69989;SDS011;57331;52.054;5.294;2023-02-10T16:44:09;42.27;;;18.67;;
69989;SDS011;57331;52.054;5.294;2023-02-10T16:46:36;43.03;;;17.17;;
69989;SDS011;57331;52.054;5.294;2023-02-10T16:49:04;47.13;;;21.45;;
69989;SDS011;57331;52.054;5.294;2023-02-10T16:51:31;62.58;;;31.48;;
69989;SDS011;57331;52.054;5.294;2023-02-10T16:53:58;54.58;;;22.88;;
69989;SDS011;57331;52.054;5.294;2023-02-10T16:56:25;49.27;;;20.33;;
69989;SDS011;57331;52.054;5.294;2023-02-10T16:58:54;44.17;;;20.10;;
69989;SDS011;57331;52.054;5.294;2023-02-10T17:01:21;50.95;;;19.88;;
69989;SDS011;57331;52.054;5.294;2023-02-10T17:03:49;43.47;;;18.63;;
69989;SDS011;57331;52.054;5.294;2023-02-10T17:06:17;35.50;;;15.50;;
69989;SDS011;57331;52.054;5.294;2023-02-10T17:08:45;41.80;;;16.73;;
69989;SDS011;57331;52.054;5.294;2023-02-10T17:11:13;46.40;;;18.73;;
69989;SDS011;57331;52.054;5.294;2023-02-10T17:13:40;45.28;;;19.65;;
69989;SDS011;57331;52.054;5.294;2023-02-10T17:16:12;46.05;;;17.60;;
69989;SDS011;57331;52.054;5.294;2023-02-10T17:18:55;42.20;;;19.23;;
69989;SDS011;57331;52.054;5.294;2023-02-10T17:21:23;45.03;;;19.40;;